createdAt,value
2022-12-01T00:00:38.749Z,12.97
2022-12-01T00:03:26.521Z,12.33
2022-12-01T00:06:16.568Z,11.73
2022-12-01T00:09:20.745Z,10.70
2022-12-01T00:12:08.183Z,11.13
2022-12-01T00:15:00.822Z,11.27
2022-12-01T00:17:49.376Z,11.97
2022-12-01T00:20:37.215Z,10.87
2022-12-01T00:23:24.497Z,11.00
2022-12-01T00:26:10.799Z,10.60
2022-12-01T00:29:00.384Z,10.93
2022-12-01T00:31:47.553Z,8.93
2022-12-01T00:34:37.913Z,9.10
2022-12-01T00:37:24.721Z,10.70
2022-12-01T00:40:13.340Z,10.63
2022-12-01T00:43:00.503Z,9.70
2022-12-01T00:45:47.631Z,9.80
2022-12-01T00:48:34.606Z,9.73
2022-12-01T00:51:22.556Z,11.20
2022-12-01T00:54:09.724Z,9.50
2022-12-01T00:56:56.587Z,9.63
2022-12-01T00:59:43.415Z,11.30
2022-12-01T01:02:30.494Z,11.30
2022-12-01T01:05:17.599Z,9.87
2022-12-01T01:08:08.282Z,9.87
2022-12-01T01:10:54.911Z,10.93
2022-12-01T01:13:41.682Z,11.07
2022-12-01T01:16:29.243Z,9.40
2022-12-01T01:19:17.453Z,11.00
2022-12-01T01:22:04.295Z,10.03
2022-12-01T01:24:52.848Z,10.20
2022-12-01T01:27:39.747Z,10.47
2022-12-01T01:30:26.612Z,11.33
2022-12-01T01:33:13.575Z,10.43
2022-12-01T01:36:00.964Z,10.83
2022-12-01T01:38:51.166Z,12.27
2022-12-01T01:41:39.352Z,9.83
2022-12-01T01:44:51.975Z,10.20
2022-12-01T01:47:41.655Z,9.30
2022-12-01T01:50:30.536Z,9.93
2022-12-01T01:53:17.593Z,9.73
2022-12-01T01:56:06.592Z,9.03
2022-12-01T01:58:55.550Z,9.20
2022-12-01T02:01:42.301Z,8.37
2022-12-01T02:04:30.419Z,9.57
2022-12-01T02:07:20.585Z,9.83
2022-12-01T02:10:11.969Z,8.67
2022-12-01T02:13:16.997Z,9.43
2022-12-01T02:16:15.496Z,9.60
2022-12-01T02:19:30.508Z,8.27
2022-12-01T02:22:30.707Z,8.60
2022-12-01T02:25:33.574Z,8.93
2022-12-01T02:28:49.267Z,8.47
2022-12-01T02:31:45.233Z,8.43
2022-12-01T02:34:44.609Z,9.37
2022-12-01T02:37:37.320Z,10.47
2022-12-01T02:40:31.709Z,9.43
2022-12-01T02:43:28.303Z,10.47
2022-12-01T02:46:21.737Z,10.50
2022-12-01T02:49:19.474Z,10.30
2022-12-01T02:52:08.102Z,10.03
2022-12-01T02:54:56.201Z,8.47
2022-12-01T02:57:43.050Z,9.40
2022-12-01T03:00:31.830Z,9.50
2022-12-01T03:03:40.058Z,8.80
2022-12-01T03:06:42.499Z,9.87
2022-12-01T03:09:42.640Z,9.23
2022-12-01T03:12:38.660Z,8.63
2022-12-01T03:15:36.816Z,9.43
2022-12-01T03:18:34.061Z,8.57
2022-12-01T03:21:33.603Z,8.53
2022-12-01T03:24:27.348Z,8.50
2022-12-01T03:27:17.742Z,10.00
2022-12-01T03:30:10.251Z,9.83
2022-12-01T03:33:04.714Z,9.37
2022-12-01T03:35:58.784Z,9.37
2022-12-01T03:38:55.596Z,10.20
2022-12-01T03:41:50.271Z,9.77
2022-12-01T03:44:45.838Z,9.87
2022-12-01T03:47:35.705Z,9.13
2022-12-01T03:50:24.290Z,9.60
2022-12-01T03:53:19.424Z,8.93
2022-12-01T03:56:09.165Z,9.57
2022-12-01T03:59:01.254Z,10.73
2022-12-01T04:01:48.308Z,10.13
2022-12-01T04:04:49.244Z,10.83
2022-12-01T04:07:36.146Z,10.20
2022-12-01T04:10:22.924Z,10.10
2022-12-01T04:13:16.617Z,9.43
2022-12-01T04:16:03.366Z,11.77
2022-12-01T04:18:50.215Z,9.53
2022-12-01T04:21:37.095Z,11.27
2022-12-01T04:24:23.522Z,11.63
2022-12-01T04:27:10.518Z,10.50
2022-12-01T04:29:58.657Z,12.00
2022-12-01T04:32:45.770Z,11.50
2022-12-01T04:35:32.498Z,10.10
2022-12-01T04:38:19.507Z,12.17
2022-12-01T04:41:10.638Z,10.50
2022-12-01T04:43:57.474Z,11.13
2022-12-01T04:46:45.992Z,10.50
2022-12-01T04:49:33.468Z,11.60
2022-12-01T04:52:20.261Z,11.53
2022-12-01T04:55:08.444Z,11.37
2022-12-01T04:57:54.953Z,11.33
2022-12-01T05:00:42.053Z,11.17
2022-12-01T05:03:30.644Z,10.87
2022-12-01T05:06:21.460Z,11.83
2022-12-01T05:09:12.192Z,11.40
2022-12-01T05:12:02.377Z,10.90
2022-12-01T05:14:48.953Z,12.13
2022-12-01T05:17:37.264Z,11.83
2022-12-01T05:20:44.627Z,15.17
2022-12-01T05:23:34.608Z,13.80
2022-12-01T05:26:21.569Z,15.10
2022-12-01T05:29:08.808Z,13.17
2022-12-01T05:31:56.846Z,13.07
2022-12-01T05:34:43.631Z,12.27
2022-12-01T05:37:33.249Z,10.27
2022-12-01T05:40:20.046Z,10.93
2022-12-01T05:43:08.405Z,10.07
2022-12-01T05:45:56.462Z,11.00
2022-12-01T05:48:43.613Z,10.77
2022-12-01T05:51:30.139Z,11.70
2022-12-01T05:54:18.425Z,14.23
2022-12-01T05:57:05.048Z,13.30
2022-12-01T05:59:52.224Z,12.77
2022-12-01T06:02:38.866Z,11.30
2022-12-01T06:05:25.851Z,11.77
2022-12-01T06:08:12.315Z,11.80
2022-12-01T06:11:01.000Z,12.13
2022-12-01T06:13:47.702Z,13.10
2022-12-01T06:16:34.962Z,13.73
2022-12-01T06:19:22.071Z,15.20
2022-12-01T06:22:08.754Z,15.80
2022-12-01T06:24:55.797Z,17.33
2022-12-01T06:27:44.185Z,14.30
2022-12-01T06:30:31.236Z,13.43
2022-12-01T06:33:18.048Z,12.80
2022-12-01T06:36:07.558Z,12.37
2022-12-01T06:38:54.407Z,11.23
2022-12-01T06:41:41.021Z,12.57
2022-12-01T06:44:29.848Z,12.27
2022-12-01T06:47:17.199Z,12.43
2022-12-01T06:50:05.308Z,10.70
2022-12-01T06:52:52.894Z,12.53
2022-12-01T06:55:40.697Z,10.60
2022-12-01T06:58:27.615Z,10.93
2022-12-01T07:01:17.053Z,9.73
2022-12-01T07:04:03.786Z,10.77
2022-12-01T07:06:50.464Z,11.93
2022-12-01T07:09:37.245Z,11.10
2022-12-01T07:12:23.812Z,10.10
2022-12-01T07:15:12.018Z,8.90
2022-12-01T07:18:00.404Z,10.73
2022-12-01T07:20:47.856Z,10.20
2022-12-01T07:23:35.875Z,11.23
2022-12-01T07:26:22.525Z,11.00
2022-12-01T07:29:09.688Z,10.77
2022-12-01T07:31:56.335Z,8.43
2022-12-01T07:34:44.561Z,9.30
2022-12-01T07:37:31.630Z,8.63
2022-12-01T07:40:18.900Z,7.90
2022-12-01T07:43:05.688Z,9.20
2022-12-01T07:45:52.697Z,8.33
2022-12-01T07:48:41.786Z,8.47
2022-12-01T07:51:30.605Z,8.47
2022-12-01T07:54:20.119Z,8.27
2022-12-01T07:57:06.531Z,7.87
2022-12-01T07:59:53.640Z,8.43
2022-12-01T08:02:40.520Z,8.43
2022-12-01T08:05:30.563Z,8.70
2022-12-01T08:08:18.968Z,9.30
2022-12-01T08:11:09.047Z,8.83
2022-12-01T08:13:58.875Z,8.40
2022-12-01T08:16:45.928Z,8.57
2022-12-01T08:19:33.024Z,8.90
2022-12-01T08:22:19.946Z,8.63
2022-12-01T08:25:09.465Z,9.53
2022-12-01T08:27:56.401Z,7.97
2022-12-01T08:30:43.269Z,9.10
2022-12-01T08:33:30.510Z,8.57
2022-12-01T08:36:18.397Z,9.93
2022-12-01T08:39:05.636Z,10.10
2022-12-01T08:41:53.876Z,9.70
2022-12-01T08:44:40.956Z,9.60
2022-12-01T08:47:30.071Z,9.50
2022-12-01T08:50:17.254Z,11.07
2022-12-01T08:53:04.200Z,10.73
2022-12-01T08:55:50.906Z,12.67
2022-12-01T08:58:39.242Z,10.57
2022-12-01T09:01:26.893Z,12.70
2022-12-01T09:04:13.708Z,12.37
2022-12-01T09:07:00.562Z,13.03
2022-12-01T09:09:49.158Z,12.93
2022-12-01T09:12:36.527Z,13.67
2022-12-01T09:15:25.073Z,15.77
2022-12-01T09:18:11.674Z,13.97
2022-12-01T09:20:59.619Z,14.47
2022-12-01T09:23:47.124Z,13.33
2022-12-01T09:26:35.198Z,12.63
2022-12-01T09:29:22.045Z,14.07
2022-12-01T09:32:10.228Z,14.93
2022-12-01T09:34:57.185Z,14.97
2022-12-01T09:37:44.603Z,14.07
2022-12-01T09:40:37.622Z,14.00
2022-12-01T09:43:30.724Z,13.53
2022-12-01T09:46:26.109Z,13.87
2022-12-01T09:49:25.181Z,12.37
2022-12-01T09:52:16.468Z,14.67
2022-12-01T09:55:03.794Z,14.03
2022-12-01T09:57:54.689Z,14.33
2022-12-01T10:00:45.742Z,14.27
2022-12-01T10:03:40.536Z,14.87
2022-12-01T10:06:38.940Z,14.67
2022-12-01T10:09:36.779Z,15.13
2022-12-01T10:12:27.802Z,14.67
2022-12-01T10:15:33.249Z,15.90
2022-12-01T10:18:47.163Z,16.90
2022-12-01T10:21:56.257Z,15.53
2022-12-01T10:24:56.263Z,17.13
2022-12-01T10:28:02.995Z,18.93
2022-12-01T10:30:52.609Z,16.60
2022-12-01T10:33:58.400Z,18.53
2022-12-01T10:36:46.988Z,16.17
2022-12-01T10:39:41.112Z,17.57
2022-12-01T10:42:37.870Z,17.10
2022-12-01T10:45:28.164Z,17.53
2022-12-01T10:48:18.631Z,16.40
2022-12-01T10:51:19.511Z,16.97
2022-12-01T10:54:12.249Z,17.67
2022-12-01T10:57:00.444Z,17.73
2022-12-01T10:59:54.364Z,17.47
2022-12-01T11:02:45.519Z,17.27
2022-12-01T11:05:39.386Z,19.37
2022-12-01T11:08:34.413Z,18.47
2022-12-01T11:11:35.528Z,16.83
2022-12-01T11:14:28.509Z,18.80
2022-12-01T11:17:35.936Z,17.27
2022-12-01T11:20:34.428Z,18.77
2022-12-01T11:23:29.780Z,18.93
2022-12-01T11:26:22.359Z,16.27
2022-12-01T11:29:37.161Z,18.60
2022-12-01T11:32:27.604Z,16.37
2022-12-01T11:35:21.026Z,18.57
2022-12-01T11:38:34.370Z,17.53
2022-12-01T11:41:33.777Z,17.90
2022-12-01T11:44:49.568Z,18.43
2022-12-01T11:47:29.979Z,18.63
2022-12-01T11:50:27.679Z,17.73
2022-12-01T11:53:29.535Z,18.53
2022-12-01T11:56:23.291Z,17.70
2022-12-01T11:59:16.659Z,18.83
2022-12-01T12:02:23.510Z,17.50
2022-12-01T12:06:38.376Z,18.27
2022-12-01T12:09:45.893Z,18.17
2022-12-01T12:12:58.510Z,18.30
2022-12-01T12:16:01.343Z,18.13
2022-12-01T12:19:11.942Z,19.10
2022-12-01T12:22:17.338Z,19.63
2022-12-01T12:25:28.573Z,16.30
2022-12-01T12:28:34.637Z,16.83
2022-12-01T12:31:33.964Z,16.00
2022-12-01T12:34:43.762Z,15.90
2022-12-01T12:37:44.516Z,16.57
2022-12-01T12:40:42.757Z,16.83
2022-12-01T12:43:40.975Z,17.50
2022-12-01T12:46:43.887Z,15.77
2022-12-01T12:49:45.541Z,15.53
2022-12-01T12:52:36.805Z,17.33
2022-12-01T12:55:31.264Z,18.50
2022-12-01T12:58:25.012Z,18.10
2022-12-01T13:01:20.502Z,19.03
2022-12-01T13:04:13.481Z,17.70
2022-12-01T13:07:07.426Z,19.20
2022-12-01T13:10:01.423Z,19.27
2022-12-01T13:12:58.600Z,19.90
2022-12-01T13:15:47.853Z,18.30
2022-12-01T13:18:42.928Z,20.83
2022-12-01T13:21:40.708Z,20.40
2022-12-01T13:24:32.416Z,17.93
2022-12-01T13:27:24.503Z,20.47
2022-12-01T13:30:21.430Z,21.20
2022-12-01T13:33:09.122Z,20.13
2022-12-01T13:36:30.040Z,21.23
2022-12-01T13:39:08.785Z,19.63
2022-12-01T13:42:04.784Z,19.53
2022-12-01T13:44:56.906Z,18.57
2022-12-01T13:47:52.678Z,19.50
2022-12-01T13:51:04.992Z,18.73
2022-12-01T13:54:02.824Z,19.83
2022-12-01T13:57:04.861Z,18.87
2022-12-01T14:00:23.942Z,17.17
2022-12-01T14:03:41.138Z,15.90
2022-12-01T14:06:38.989Z,17.47
2022-12-01T14:09:33.354Z,17.67
2022-12-01T14:12:28.620Z,16.57
2022-12-01T14:15:31.493Z,17.13
2022-12-01T14:18:35.868Z,18.00
2022-12-01T14:21:47.768Z,17.27
2022-12-01T14:24:40.594Z,16.50
2022-12-01T14:27:39.110Z,16.90
2022-12-01T14:31:05.057Z,17.93
2022-12-01T14:33:58.793Z,17.10
2022-12-01T14:36:50.499Z,16.50
2022-12-01T14:39:42.386Z,16.37
2022-12-01T14:42:54.583Z,17.87
2022-12-01T14:45:58.084Z,17.03
2022-12-01T14:48:47.382Z,15.60
2022-12-01T14:51:37.614Z,17.20
2022-12-01T14:54:31.210Z,17.93
2022-12-01T14:57:25.412Z,14.83
2022-12-01T15:00:18.446Z,18.97
2022-12-01T15:03:10.753Z,16.07
2022-12-01T15:05:57.706Z,16.90
2022-12-01T15:08:58.433Z,16.50
2022-12-01T15:11:56.932Z,15.80
2022-12-01T15:14:51.434Z,17.73
2022-12-01T15:17:40.393Z,17.43
2022-12-01T15:20:37.867Z,17.37
2022-12-01T15:23:24.686Z,18.20
2022-12-01T15:26:20.707Z,16.43
2022-12-01T15:29:17.498Z,16.97
2022-12-01T15:32:09.884Z,16.30
2022-12-01T15:35:02.073Z,15.80
2022-12-01T15:37:51.242Z,17.33
2022-12-01T15:43:54.440Z,16.40
2022-12-01T15:46:41.387Z,14.60
2022-12-01T15:49:33.173Z,16.53
2022-12-01T15:52:22.622Z,16.87
2022-12-01T15:55:41.443Z,16.50
2022-12-01T15:59:09.310Z,16.43
2022-12-01T16:01:56.923Z,15.07
2022-12-01T16:04:45.533Z,15.47
2022-12-01T16:08:11.710Z,13.67
2022-12-01T16:10:46.735Z,14.70
2022-12-01T16:13:44.939Z,16.30
2022-12-01T16:16:43.808Z,16.33
2022-12-01T16:19:33.668Z,15.07
2022-12-01T16:22:23.081Z,16.47
2022-12-01T16:25:21.719Z,14.90
2022-12-01T16:28:21.766Z,14.73
2022-12-01T16:31:19.988Z,15.67
2022-12-01T16:34:24.497Z,15.43
2022-12-01T16:37:14.299Z,14.37
2022-12-01T16:41:08.581Z,14.97
2022-12-01T16:44:26.619Z,15.30
2022-12-01T16:47:02.918Z,13.97
2022-12-01T16:49:50.689Z,13.17
2022-12-01T16:52:45.975Z,14.50
2022-12-01T16:55:42.408Z,14.40
2022-12-01T16:58:31.110Z,13.20
2022-12-01T17:01:18.176Z,15.17
2022-12-01T17:04:07.715Z,13.23
2022-12-01T17:06:55.353Z,13.70
2022-12-01T17:09:41.768Z,14.33
2022-12-01T17:12:28.914Z,15.30
2022-12-01T17:15:17.128Z,13.53
2022-12-01T17:18:03.953Z,12.50
2022-12-01T17:20:59.420Z,15.33
2022-12-01T17:23:46.222Z,13.17
2022-12-01T17:26:33.168Z,14.97
2022-12-01T17:29:20.175Z,13.93
2022-12-01T17:32:10.925Z,15.87
2022-12-01T17:34:57.900Z,14.77
2022-12-01T17:37:46.612Z,15.50
2022-12-01T17:40:33.804Z,14.50
2022-12-01T17:43:20.887Z,13.03
2022-12-01T17:46:11.642Z,12.87
2022-12-01T17:49:00.877Z,14.60
2022-12-01T17:51:49.101Z,13.70
2022-12-01T17:54:36.264Z,14.17
2022-12-01T17:57:22.866Z,13.97
2022-12-01T18:00:11.609Z,12.63
2022-12-01T18:02:58.735Z,13.43
2022-12-01T18:05:56.737Z,13.50
2022-12-01T18:08:44.460Z,13.70
2022-12-01T18:11:32.174Z,11.63
2022-12-01T18:14:19.484Z,12.20
2022-12-01T18:17:06.798Z,12.17
2022-12-01T18:19:53.468Z,10.53
2022-12-01T18:22:41.662Z,11.40
2022-12-01T18:25:28.592Z,11.47
2022-12-01T18:28:15.637Z,11.20
2022-12-01T18:31:05.911Z,12.63
2022-12-01T18:33:53.293Z,12.67
2022-12-01T18:36:42.756Z,11.10
2022-12-01T18:39:31.150Z,11.07
2022-12-01T18:42:18.143Z,11.93
2022-12-01T18:45:05.205Z,10.60
2022-12-01T18:47:52.358Z,11.67
2022-12-01T18:50:39.241Z,12.23
2022-12-01T18:53:26.149Z,12.00
2022-12-01T18:56:15.787Z,12.97
2022-12-01T18:59:09.441Z,12.23
2022-12-01T19:01:56.710Z,11.20
2022-12-01T19:04:43.907Z,11.30
2022-12-01T19:07:30.644Z,11.73
2022-12-01T19:10:17.874Z,13.33
2022-12-01T19:13:06.408Z,11.97
2022-12-01T19:15:53.127Z,12.77
2022-12-01T19:18:40.874Z,11.60
2022-12-01T19:21:28.173Z,11.77
2022-12-01T19:24:14.898Z,13.03
2022-12-01T19:27:01.885Z,12.50
2022-12-01T19:29:50.111Z,11.80
2022-12-01T19:32:37.435Z,11.37
2022-12-01T19:35:24.636Z,12.27
2022-12-01T19:38:11.644Z,11.70
2022-12-01T19:41:01.371Z,12.57
2022-12-01T19:43:49.119Z,11.90
2022-12-01T19:46:37.549Z,13.23
2022-12-01T19:49:24.728Z,13.00
2022-12-01T19:52:11.692Z,12.50
2022-12-01T19:54:59.796Z,12.73
2022-12-01T19:57:51.088Z,14.10
2022-12-01T20:00:38.221Z,13.90
2022-12-01T20:03:26.121Z,12.37
2022-12-01T20:06:19.573Z,13.00
2022-12-01T20:09:09.475Z,13.53
2022-12-01T20:11:56.772Z,15.40
2022-12-01T20:14:43.912Z,13.80
2022-12-01T20:17:30.827Z,14.10
2022-12-01T20:20:19.188Z,13.57
2022-12-01T20:23:05.990Z,13.23
2022-12-01T20:25:52.601Z,12.90
2022-12-01T20:28:41.628Z,14.90
2022-12-01T20:31:31.574Z,14.60
2022-12-01T20:34:22.628Z,14.33
2022-12-01T20:37:11.070Z,13.40
2022-12-01T20:39:57.819Z,13.70
2022-12-01T20:42:44.239Z,14.60
2022-12-01T20:45:31.228Z,13.40
2022-12-01T20:48:18.618Z,13.20
2022-12-01T20:51:08.445Z,14.23
2022-12-01T20:54:26.134Z,12.50
2022-12-01T20:57:03.115Z,13.80
2022-12-01T20:59:50.007Z,15.67
2022-12-01T21:02:38.318Z,15.13
2022-12-01T21:05:25.848Z,13.77
2022-12-01T21:08:15.064Z,13.73
2022-12-01T21:11:09.236Z,16.37
2022-12-01T21:13:55.260Z,14.23
2022-12-01T21:16:45.285Z,14.17
2022-12-01T21:19:46.998Z,14.50
2022-12-01T21:22:33.577Z,14.83
2022-12-01T21:25:24.544Z,15.40
2022-12-01T21:28:19.691Z,14.17
2022-12-01T21:31:14.923Z,14.03
2022-12-01T21:34:02.671Z,15.10
2022-12-01T21:36:52.632Z,13.67
2022-12-01T21:39:40.462Z,10.77
2022-12-01T21:42:32.496Z,14.03
2022-12-01T21:45:27.044Z,12.60
2022-12-01T21:48:18.307Z,12.77
2022-12-01T21:51:19.384Z,11.90
2022-12-01T21:54:13.255Z,11.57
2022-12-01T21:57:00.293Z,15.67
2022-12-01T21:59:47.157Z,12.43
2022-12-01T22:02:49.229Z,14.07
2022-12-01T22:05:40.574Z,11.20
2022-12-01T22:08:30.460Z,10.77
2022-12-01T22:11:21.880Z,12.20
2022-12-01T22:14:17.213Z,11.37
2022-12-01T22:17:19.733Z,9.77
2022-12-01T22:20:23.629Z,10.03
2022-12-01T22:23:13.953Z,12.37
2022-12-01T22:26:00.669Z,11.10
2022-12-01T22:28:48.324Z,10.70
2022-12-01T22:31:36.230Z,11.23
2022-12-01T22:34:23.034Z,10.40
2022-12-01T22:37:20.458Z,10.33
2022-12-01T22:40:36.962Z,11.63
2022-12-01T22:43:44.911Z,9.83
2022-12-01T22:46:35.224Z,10.70
2022-12-01T22:49:24.499Z,12.60
2022-12-01T22:52:30.650Z,10.47
2022-12-01T22:55:20.444Z,11.53
2022-12-01T22:58:24.607Z,12.10
2022-12-01T23:01:28.697Z,11.20
2022-12-01T23:04:27.626Z,9.87
2022-12-01T23:07:33.728Z,9.77
2022-12-01T23:10:23.176Z,12.27
2022-12-01T23:13:16.491Z,10.67
2022-12-01T23:16:03.195Z,10.63
2022-12-01T23:18:50.144Z,10.90
2022-12-01T23:21:37.610Z,10.23
2022-12-01T23:24:28.662Z,10.37
2022-12-01T23:27:19.402Z,9.43
2022-12-01T23:30:08.629Z,10.50
2022-12-01T23:33:10.771Z,11.17
2022-12-01T23:36:02.041Z,11.77
2022-12-01T23:38:53.209Z,11.83
2022-12-01T23:41:43.985Z,11.13
2022-12-01T23:44:41.751Z,12.60
2022-12-01T23:47:30.423Z,10.63
2022-12-01T23:50:23.163Z,11.83
2022-12-01T23:53:26.736Z,10.97
2022-12-01T23:56:18.122Z,10.57
2022-12-01T23:59:13.223Z,11.33
